createdAt,value
2023-03-03T00:02:09.782Z,20.03
2023-03-03T00:06:14.189Z,19.07
2023-03-03T00:10:15.564Z,19.43
2023-03-03T00:14:28.785Z,19.23
2023-03-03T00:18:33.326Z,19.23
2023-03-03T00:22:37.451Z,19.77
2023-03-03T00:26:41.087Z,20.87
2023-03-03T00:30:42.481Z,21.70
2023-03-03T00:34:44.699Z,21.30
2023-03-03T00:38:47.847Z,22.23
2023-03-03T00:42:52.365Z,21.60
2023-03-03T00:46:53.840Z,21.93
2023-03-03T00:50:57.065Z,23.00
2023-03-03T00:54:59.772Z,22.53
2023-03-03T00:59:01.137Z,22.07
2023-03-03T01:03:04.145Z,21.80
2023-03-03T01:07:05.563Z,21.63
2023-03-03T01:11:13.040Z,22.30
2023-03-03T01:15:15.640Z,23.13
2023-03-03T01:19:17.561Z,22.90
2023-03-03T01:23:18.967Z,22.13
2023-03-03T01:27:21.714Z,23.10
2023-03-03T01:31:23.148Z,23.43
2023-03-03T01:35:24.921Z,24.03
2023-03-03T01:39:26.545Z,23.63
2023-03-03T01:43:31.062Z,24.47
2023-03-03T01:47:34.887Z,23.70
2023-03-03T01:51:43.059Z,24.83
2023-03-03T01:55:46.498Z,26.63
2023-03-03T01:59:50.981Z,26.57
2023-03-03T02:03:52.561Z,25.73
2023-03-03T02:07:54.122Z,26.33
2023-03-03T02:12:00.104Z,26.07
2023-03-03T02:16:02.985Z,25.60
2023-03-03T02:20:12.224Z,25.77
2023-03-03T02:24:20.465Z,24.77
2023-03-03T02:28:25.315Z,27.50
2023-03-03T02:32:26.759Z,27.50
2023-03-03T02:36:30.247Z,28.47
2023-03-03T02:40:36.730Z,29.37
2023-03-03T02:44:39.501Z,29.37
2023-03-03T02:48:40.998Z,28.87
2023-03-03T02:52:42.520Z,30.03
2023-03-03T02:56:43.967Z,29.37
2023-03-03T03:00:46.737Z,29.97
2023-03-03T03:04:48.137Z,29.53
2023-03-03T03:08:52.507Z,29.37
2023-03-03T03:12:53.879Z,28.97
2023-03-03T03:16:56.627Z,29.33
2023-03-03T03:21:06.142Z,28.50
2023-03-03T03:25:08.406Z,29.53
2023-03-03T03:29:10.062Z,29.10
2023-03-03T03:33:13.304Z,27.83
2023-03-03T03:37:14.740Z,28.73
2023-03-03T03:41:16.223Z,28.63
2023-03-03T03:45:17.750Z,29.90
2023-03-03T03:49:21.010Z,28.80
2023-03-03T03:53:22.801Z,27.17
2023-03-03T03:57:26.552Z,28.33
2023-03-03T04:01:28.123Z,28.50
2023-03-03T04:05:30.861Z,27.67
2023-03-03T04:09:32.286Z,27.73
2023-03-03T04:13:34.844Z,27.87
2023-03-03T04:17:36.552Z,28.90
2023-03-03T04:21:39.262Z,28.93
2023-03-03T04:25:40.665Z,27.70
2023-03-03T04:29:42.263Z,27.63
2023-03-03T04:33:43.623Z,27.33
2023-03-03T04:37:46.402Z,26.63
2023-03-03T04:41:47.784Z,26.00
2023-03-03T04:45:49.390Z,26.07
2023-03-03T04:49:50.885Z,25.70
2023-03-03T04:53:53.540Z,25.37
2023-03-03T04:57:54.901Z,26.03
2023-03-03T05:01:56.394Z,26.23
2023-03-03T05:05:57.848Z,26.77
2023-03-03T05:10:00.735Z,25.80
2023-03-03T05:14:02.100Z,26.23
2023-03-03T05:18:03.921Z,25.67
2023-03-03T05:22:05.673Z,26.60
2023-03-03T05:26:08.616Z,26.50
2023-03-03T05:30:11.249Z,27.27
2023-03-03T05:34:12.658Z,26.60
2023-03-03T05:38:14.012Z,27.90
2023-03-03T05:42:16.764Z,25.97
2023-03-03T05:46:18.272Z,26.70
2023-03-03T05:50:21.323Z,24.53
2023-03-03T05:54:22.726Z,24.20
2023-03-03T05:58:26.301Z,23.10
2023-03-03T06:02:27.671Z,22.53
2023-03-03T06:06:29.092Z,24.27
2023-03-03T06:10:30.531Z,24.23
2023-03-03T06:14:33.217Z,24.03
2023-03-03T06:18:34.610Z,23.00
2023-03-03T06:22:36.008Z,22.73
2023-03-03T06:26:37.438Z,22.73
2023-03-03T06:30:40.500Z,21.57
2023-03-03T06:34:41.939Z,22.00
2023-03-03T06:38:43.568Z,22.87
2023-03-03T06:42:44.959Z,22.03
2023-03-03T06:46:47.940Z,21.93
2023-03-03T06:50:49.317Z,22.77
2023-03-03T06:54:53.452Z,22.13
2023-03-03T06:58:56.600Z,22.27
2023-03-03T07:03:01.810Z,21.77
2023-03-03T07:07:11.123Z,22.27
2023-03-03T07:11:17.538Z,21.67
2023-03-03T07:15:24.233Z,22.23
2023-03-03T07:19:33.049Z,21.73
2023-03-03T07:23:38.842Z,20.83
2023-03-03T07:27:40.187Z,22.53
2023-03-03T07:31:45.802Z,21.60
2023-03-03T07:35:48.945Z,21.63
2023-03-03T07:39:50.702Z,21.57
2023-03-03T07:43:53.347Z,24.03
2023-03-03T07:48:01.245Z,22.43
2023-03-03T07:52:23.278Z,21.67
2023-03-03T07:56:30.911Z,22.00
2023-03-03T08:01:12.195Z,22.30
2023-03-03T08:05:28.850Z,21.70
2023-03-03T08:09:50.752Z,20.73
2023-03-03T08:13:52.123Z,20.93
2023-03-03T08:17:55.205Z,21.80
2023-03-03T08:22:00.716Z,21.40
2023-03-03T08:26:03.544Z,20.80
2023-03-03T08:30:05.565Z,20.47
2023-03-03T08:34:07.315Z,20.73
2023-03-03T08:38:10.007Z,19.33
2023-03-03T08:42:14.173Z,20.17
2023-03-03T08:46:17.359Z,21.23
2023-03-03T08:50:21.969Z,22.50
2023-03-03T08:54:23.363Z,22.63
2023-03-03T08:58:35.177Z,23.87
2023-03-03T09:02:37.565Z,21.63
2023-03-03T09:06:39.322Z,22.93
2023-03-03T09:10:40.688Z,21.00
2023-03-03T09:14:43.672Z,21.70
2023-03-03T09:18:45.086Z,21.70
2023-03-03T09:22:46.581Z,20.17
2023-03-03T09:26:48.397Z,21.33
2023-03-03T09:30:52.311Z,20.30
2023-03-03T09:34:53.798Z,21.60
2023-03-03T09:38:56.968Z,20.50
2023-03-03T09:43:04.570Z,19.90
2023-03-03T09:47:27.251Z,20.87
2023-03-03T09:51:54.377Z,19.43
2023-03-03T09:56:03.095Z,19.50
2023-03-03T10:00:23.363Z,19.73
2023-03-03T10:04:50.588Z,19.53
2023-03-03T10:09:24.064Z,20.00
2023-03-03T10:13:36.694Z,19.97
2023-03-03T10:17:49.735Z,20.63
2023-03-03T10:21:59.077Z,20.23
2023-03-03T10:26:16.355Z,20.03
2023-03-03T10:30:38.963Z,19.37
2023-03-03T10:35:02.447Z,19.63
2023-03-03T10:39:22.131Z,19.40
2023-03-03T10:43:37.989Z,19.20
2023-03-03T10:47:51.594Z,19.30
2023-03-03T10:52:16.234Z,20.63
2023-03-03T10:56:40.279Z,21.03
2023-03-03T11:01:01.723Z,20.40
2023-03-03T11:05:17.881Z,21.13
2023-03-03T11:09:40.932Z,23.17
2023-03-03T11:13:50.477Z,21.70
2023-03-03T11:18:14.877Z,22.47
2023-03-03T11:22:38.357Z,22.73
2023-03-03T11:27:11.256Z,21.43
2023-03-03T11:31:20.931Z,22.73
2023-03-03T11:35:26.960Z,23.50
2023-03-03T11:39:28.360Z,23.10
2023-03-03T11:43:38.036Z,22.07
2023-03-03T11:47:49.856Z,21.70
2023-03-03T11:52:01.311Z,22.83
2023-03-03T11:56:13.410Z,23.10
2023-03-03T12:00:28.082Z,21.23
2023-03-03T12:04:36.759Z,22.67
2023-03-03T12:08:56.625Z,21.60
2023-03-03T12:13:03.306Z,21.97
2023-03-03T12:17:14.758Z,22.00
2023-03-03T12:25:57.068Z,22.93
2023-03-03T12:30:11.633Z,22.33
2023-03-03T12:34:21.883Z,21.13
2023-03-03T12:38:34.852Z,20.83
2023-03-03T12:42:48.619Z,22.27
2023-03-03T12:46:59.384Z,23.23
2023-03-03T12:51:09.467Z,23.00
2023-03-03T12:55:21.266Z,22.00
2023-03-03T12:59:32.549Z,20.43
2023-03-03T13:03:54.940Z,20.93
2023-03-03T13:08:16.725Z,22.40
2023-03-03T13:12:31.778Z,22.00
2023-03-03T13:16:41.423Z,22.50
2023-03-03T13:20:49.121Z,23.70
2023-03-03T13:25:01.113Z,22.80
2023-03-03T13:29:18.937Z,21.63
2023-03-03T13:33:26.607Z,23.17
2023-03-03T13:37:31.854Z,23.03
2023-03-03T13:41:38.749Z,24.03
2023-03-03T13:45:53.902Z,24.17
2023-03-03T13:50:17.020Z,25.63
2023-03-03T13:54:42.533Z,25.37
2023-03-03T13:58:48.854Z,26.20
2023-03-03T14:03:03.357Z,26.43
2023-03-03T14:07:14.317Z,26.97
2023-03-03T14:11:23.300Z,27.20
2023-03-03T14:15:27.610Z,28.80
2023-03-03T14:19:35.761Z,28.97
2023-03-03T14:23:50.085Z,27.27
2023-03-03T14:28:02.511Z,26.00
2023-03-03T14:32:21.592Z,24.97
2023-03-03T14:36:30.335Z,24.37
2023-03-03T14:40:33.891Z,22.70
2023-03-03T14:44:37.939Z,22.67
2023-03-03T14:48:50.072Z,21.13
2023-03-03T14:53:07.398Z,19.60
2023-03-03T14:57:15.538Z,20.03
2023-03-03T15:01:23.199Z,19.13
2023-03-03T15:05:26.269Z,18.87
2023-03-03T15:09:32.881Z,17.67
2023-03-03T15:13:35.136Z,18.63
2023-03-03T15:17:38.202Z,18.13
2023-03-03T15:21:50.430Z,17.97
2023-03-03T15:25:59.380Z,18.37
2023-03-03T15:30:11.993Z,18.47
2023-03-03T15:34:33.584Z,22.60
2023-03-03T15:38:45.802Z,20.67
2023-03-03T15:42:52.817Z,24.47
2023-03-03T15:47:08.484Z,23.23
2023-03-03T15:51:20.640Z,19.57
2023-03-03T15:55:36.665Z,18.67
2023-03-03T15:59:59.035Z,18.27
2023-03-03T16:04:05.741Z,18.63
2023-03-03T16:08:13.888Z,18.47
2023-03-03T16:12:23.453Z,18.30
2023-03-03T16:16:38.024Z,18.70
2023-03-03T16:20:45.934Z,16.43
2023-03-03T16:25:03.377Z,16.57
2023-03-03T16:29:33.322Z,17.13
2023-03-03T16:33:40.728Z,16.77
2023-03-03T16:37:53.654Z,19.10
2023-03-03T16:42:00.813Z,19.27
2023-03-03T16:46:11.504Z,19.23
2023-03-03T16:50:25.194Z,20.77
2023-03-03T16:54:39.583Z,21.93
2023-03-03T16:58:50.848Z,20.43
2023-03-03T17:03:18.195Z,20.73
2023-03-03T17:07:36.129Z,24.17
2023-03-03T17:11:49.051Z,23.97
2023-03-03T17:16:02.223Z,22.33
2023-03-03T17:20:20.548Z,23.13
2023-03-03T17:24:37.865Z,23.43
2023-03-03T17:28:52.390Z,24.67
2023-03-03T17:33:14.291Z,26.70
2023-03-03T17:37:30.691Z,27.33
2023-03-03T17:41:39.302Z,29.40
2023-03-03T17:45:43.187Z,29.23
2023-03-03T17:50:05.760Z,29.73
2023-03-03T17:54:27.305Z,29.50
2023-03-03T17:58:50.753Z,27.13
2023-03-03T18:03:18.101Z,29.63
2023-03-03T18:07:40.680Z,33.00
2023-03-03T18:11:58.585Z,31.00
2023-03-03T18:16:13.355Z,31.93
2023-03-03T18:20:29.343Z,34.00
2023-03-03T18:24:36.934Z,32.43
2023-03-03T18:28:46.185Z,35.40
2023-03-03T18:33:10.744Z,34.07
2023-03-03T18:37:39.693Z,33.63
2023-03-03T18:42:08.197Z,35.60
2023-03-03T18:46:31.344Z,36.90
2023-03-03T18:50:35.904Z,36.33
2023-03-03T18:54:39.479Z,36.57
2023-03-03T18:58:42.820Z,38.03
2023-03-03T19:02:53.594Z,39.73
2023-03-03T19:07:14.022Z,42.07
2023-03-03T19:11:36.187Z,39.03
2023-03-03T19:15:52.307Z,39.03
2023-03-03T19:20:05.536Z,41.47
2023-03-03T19:24:26.770Z,42.00
2023-03-03T19:28:40.087Z,42.97
2023-03-03T19:33:08.915Z,44.63
2023-03-03T19:37:28.166Z,42.00
2023-03-03T19:41:45.982Z,42.80
2023-03-03T19:45:57.770Z,42.73
2023-03-03T19:50:14.802Z,44.23
2023-03-03T19:54:32.951Z,44.70
2023-03-03T19:58:46.329Z,45.27
2023-03-03T20:03:01.354Z,44.93
2023-03-03T20:07:13.663Z,44.40
2023-03-03T20:11:24.296Z,44.43
2023-03-03T20:15:32.390Z,43.83
2023-03-03T20:19:49.884Z,43.70
2023-03-03T20:24:17.976Z,41.07
2023-03-03T20:28:40.327Z,41.43
2023-03-03T20:32:56.177Z,41.27
2023-03-03T20:37:05.116Z,41.67
2023-03-03T20:41:14.750Z,41.47
2023-03-03T20:45:26.860Z,42.77
2023-03-03T20:49:55.324Z,41.70
2023-03-03T20:54:05.412Z,42.70
2023-03-03T20:58:15.139Z,41.83
2023-03-03T21:02:24.117Z,42.10
2023-03-03T21:06:37.127Z,42.30
2023-03-03T21:10:40.808Z,42.17
2023-03-03T21:14:59.549Z,41.70
2023-03-03T21:19:03.027Z,41.03
2023-03-03T21:23:05.757Z,40.77
2023-03-03T21:27:24.762Z,39.97
2023-03-03T21:31:28.432Z,40.33
2023-03-03T21:35:29.824Z,39.60
2023-03-03T21:39:34.315Z,39.53
2023-03-03T21:43:37.008Z,39.23
2023-03-03T21:47:38.363Z,38.10
2023-03-03T21:51:39.723Z,38.10
2023-03-03T21:55:42.437Z,36.93
2023-03-03T21:59:43.913Z,37.00
2023-03-03T22:03:45.273Z,37.77
2023-03-03T22:07:46.612Z,37.13
2023-03-03T22:11:49.329Z,38.27
2023-03-03T22:15:51.754Z,37.50
2023-03-03T22:19:53.460Z,35.00
2023-03-03T22:23:54.824Z,35.77
2023-03-03T22:27:58.847Z,35.97
2023-03-03T22:32:00.292Z,36.47
2023-03-03T22:36:01.782Z,38.30
2023-03-03T22:40:03.766Z,34.77
2023-03-03T22:44:07.883Z,37.33
2023-03-03T22:48:09.259Z,35.37
2023-03-03T22:52:10.658Z,35.97
2023-03-03T22:56:12.258Z,36.13
2023-03-03T23:00:16.034Z,36.00
2023-03-03T23:04:17.457Z,35.70
2023-03-03T23:08:19.956Z,36.20
2023-03-03T23:12:21.453Z,35.77
2023-03-03T23:16:24.241Z,36.37
2023-03-03T23:20:27.332Z,33.83
2023-03-03T23:24:28.755Z,33.97
2023-03-03T23:28:30.160Z,34.13
2023-03-03T23:32:33.243Z,35.60
2023-03-03T23:36:34.662Z,33.87
2023-03-03T23:40:36.005Z,33.73
2023-03-03T23:44:37.404Z,35.33
2023-03-03T23:48:40.183Z,34.47
2023-03-03T23:52:41.579Z,33.93
2023-03-03T23:56:42.972Z,33.37
